Time;durP1;ratioP1;P1;durP2;ratioP2;P2;SDS_P1;SDS_P2;PMS_P1;PMS_P2;Temp;Humidity;BMP_temperature;BMP_pressure;BME280_temperature;BME280_humidity;BME280_pressure;Samples;Min_cycle;Max_cycle;Signal;HPM_P1;HPM_P2
2023/11/17 00:00:25;;;;;;;15.00;12.07;;;9.60;99.90;;;;;;5070222;28;20586;-75
2023/11/17 00:02:51;;;;;;;16.27;11.80;;;9.60;99.90;;;;;;5035464;28;20200;-75
2023/11/17 00:05:16;;;;;;;15.90;12.47;;;9.50;99.90;;;;;;5051681;28;20184;-75
2023/11/17 00:07:42;;;;;;;15.93;11.47;;;9.50;99.90;;;;;;5054481;28;20203;-75
2023/11/17 00:10:10;;;;;;;15.40;12.00;;;9.50;99.90;;;;;;5026924;28;20265;-75
2023/11/17 00:12:36;;;;;;;17.38;14.25;;;9.40;99.90;;;;;;5045141;28;20189;-75
2023/11/17 00:15:02;;;;;;;18.70;12.60;;;9.40;99.90;;;;;;5040747;28;20209;-75
2023/11/17 00:17:28;;;;;;;21.13;13.53;;;9.30;99.90;;;;;;5040060;28;20328;-75
2023/11/17 00:19:53;;;;;;;15.60;10.80;;;9.30;99.90;;;;;;5025404;28;20585;-75
2023/11/17 00:22:20;;;;;;;17.50;13.10;;;9.30;99.90;;;;;;5039146;28;20181;-75
2023/11/17 00:24:47;;;;;;;15.38;11.05;;;9.20;99.90;;;;;;5002655;28;20196;-75
2023/11/17 00:27:14;;;;;;;13.50;10.52;;;9.20;99.90;;;;;;5031564;28;20193;-75
2023/11/17 00:29:43;;;;;;;19.58;11.88;;;9.20;99.90;;;;;;5015870;28;20204;-75
2023/11/17 00:32:09;;;;;;;13.38;11.52;;;9.10;99.90;;;;;;5069190;28;20179;-75
2023/11/17 00:34:35;;;;;;;12.87;10.03;;;9.10;99.90;;;;;;5035435;28;20169;-74
2023/11/17 00:37:07;;;;;;;20.10;11.07;;;9.10;99.90;;;;;;5035174;28;20200;-75
2023/11/17 00:39:37;;;;;;;13.05;9.38;;;9.00;99.90;;;;;;5052241;28;20199;-75
2023/11/17 00:42:03;;;;;;;10.90;9.80;;;8.90;99.90;;;;;;5049539;28;20538;-74
2023/11/17 00:44:30;;;;;;;12.60;10.13;;;8.90;99.90;;;;;;5053333;28;20321;-75
2023/11/17 00:46:56;;;;;;;11.60;8.73;;;8.80;99.90;;;;;;5020087;28;20556;-75
2023/11/17 00:49:23;;;;;;;13.80;9.35;;;8.80;99.90;;;;;;5065749;28;20251;-75
2023/11/17 00:51:49;;;;;;;11.07;8.20;;;8.80;99.90;;;;;;5039141;28;20256;-75
2023/11/17 00:54:15;;;;;;;11.05;7.90;;;8.70;99.90;;;;;;5024472;28;20192;-76
2023/11/17 00:56:41;;;;;;;11.05;7.07;;;8.70;99.90;;;;;;5035922;28;20284;-75
2023/11/17 00:59:11;;;;;;;10.57;7.67;;;8.70;99.90;;;;;;5038282;28;20263;-75
2023/11/17 01:01:40;;;;;;;9.40;6.60;;;8.60;99.90;;;;;;5048399;28;20674;-75
2023/11/17 01:04:08;;;;;;;11.25;7.60;;;8.60;99.90;;;;;;5004427;28;20207;-75
2023/11/17 01:06:37;;;;;;;10.70;7.00;;;8.60;99.90;;;;;;5040481;28;20199;-75
2023/11/17 01:09:04;;;;;;;10.15;7.43;;;8.50;99.90;;;;;;5008188;28;20197;-74
2023/11/17 01:11:30;;;;;;;14.90;6.60;;;8.50;99.90;;;;;;5047188;28;20193;-75
2023/11/17 01:13:56;;;;;;;7.90;5.57;;;8.50;99.90;;;;;;5019895;28;20185;-75
2023/11/17 01:16:21;;;;;;;7.87;6.60;;;8.40;99.90;;;;;;5055137;28;20630;-75
2023/11/17 01:18:47;;;;;;;9.13;6.20;;;8.40;99.90;;;;;;5055422;28;20184;-75
2023/11/17 01:21:13;;;;;;;8.43;6.23;;;8.40;99.90;;;;;;5051497;28;20263;-75
2023/11/17 01:23:38;;;;;;;9.70;6.60;;;8.40;99.90;;;;;;5057428;28;20732;-74
2023/11/17 01:26:04;;;;;;;8.40;6.57;;;8.40;99.90;;;;;;5024835;28;20228;-75
2023/11/17 01:28:30;;;;;;;10.20;7.33;;;8.30;99.90;;;;;;5066188;28;20176;-75
2023/11/17 01:30:56;;;;;;;6.83;6.13;;;8.30;99.90;;;;;;5055071;28;20571;-75
2023/11/17 01:33:21;;;;;;;7.10;5.50;;;8.30;99.90;;;;;;5033940;28;20240;-75
2023/11/17 01:35:48;;;;;;;8.77;6.33;;;8.30;99.90;;;;;;5025728;28;20196;-75
2023/11/17 01:38:26;;;;;;;9.05;6.15;;;8.30;99.90;;;;;;5067610;28;20175;-75
2023/11/17 01:40:52;;;;;;;6.10;5.50;;;8.20;99.90;;;;;;5072480;28;20175;-75
2023/11/17 01:43:20;;;;;;;5.82;5.22;;;8.30;99.90;;;;;;5050479;28;20216;-75
2023/11/17 01:45:46;;;;;;;8.77;5.60;;;8.20;99.90;;;;;;5025493;28;20196;-75
2023/11/17 01:48:14;;;;;;;5.50;4.57;;;8.20;99.90;;;;;;5072247;28;20268;-75
2023/11/17 01:50:40;;;;;;;7.18;5.25;;;8.20;99.90;;;;;;5054718;28;20579;-75
2023/11/17 01:53:08;;;;;;;8.75;6.72;;;8.20;99.90;;;;;;5029775;28;20173;-75
2023/11/17 01:55:35;;;;;;;9.03;5.80;;;8.20;99.90;;;;;;5029759;28;20192;-75
2023/11/17 01:58:01;;;;;;;7.63;5.93;;;8.20;99.90;;;;;;5037591;28;20634;-75
2023/11/17 02:00:27;;;;;;;11.95;8.05;;;8.10;99.90;;;;;;5057555;28;20180;-75
2023/11/17 02:02:56;;;;;;;7.65;5.43;;;8.10;99.90;;;;;;5029388;28;20265;-75
2023/11/17 02:05:24;;;;;;;8.98;6.00;;;8.10;99.90;;;;;;5046292;28;20176;-76
2023/11/17 02:08:17;;;;;;;8.43;5.53;;;8.10;99.90;;;;;;5035641;28;20275;-75
2023/11/17 02:10:57;;;;;;;8.20;6.35;;;8.10;99.90;;;;;;5032806;28;20661;-75
2023/11/17 02:13:40;;;;;;;7.55;6.00;;;8.10;99.90;;;;;;5046327;28;20651;-75
2023/11/17 02:16:17;;;;;;;6.80;6.05;;;8.00;99.90;;;;;;5036849;28;20219;-75
2023/11/17 02:18:49;;;;;;;10.20;8.10;;;8.00;99.90;;;;;;5037076;28;20668;-75
2023/11/17 02:21:20;;;;;;;8.75;6.70;;;8.00;99.90;;;;;;5070947;28;20200;-75
2023/11/17 02:23:53;;;;;;;8.57;6.22;;;8.00;99.90;;;;;;5039383;28;20681;-75
2023/11/17 02:26:26;;;;;;;7.03;6.30;;;7.90;99.90;;;;;;5021246;28;20201;-75
2023/11/17 02:29:10;;;;;;;7.88;7.00;;;7.90;99.90;;;;;;5031882;28;20764;-75
2023/11/17 02:31:39;;;;;;;8.90;7.32;;;7.90;99.90;;;;;;5043578;28;20243;-75
2023/11/17 02:34:14;;;;;;;10.18;6.50;;;7.90;99.90;;;;;;5028652;28;20172;-75
2023/11/17 02:36:40;;;;;;;9.93;7.93;;;7.90;99.90;;;;;;5056764;28;20268;-75
2023/11/17 02:39:25;;;;;;;9.43;6.43;;;7.80;99.90;;;;;;5037466;28;20701;-75
2023/11/17 02:41:58;;;;;;;10.00;7.20;;;7.80;99.90;;;;;;5052648;28;20735;-75
2023/11/17 02:44:28;;;;;;;10.32;7.00;;;7.80;99.90;;;;;;5045795;28;20293;-75
2023/11/17 02:46:58;;;;;;;9.07;6.88;;;7.80;99.90;;;;;;5036757;28;20254;-75
2023/11/17 02:49:38;;;;;;;8.35;6.57;;;7.70;99.90;;;;;;5059057;28;20176;-75
2023/11/17 02:52:11;;;;;;;10.77;7.35;;;7.70;99.90;;;;;;5026030;28;20206;-75
2023/11/17 02:54:41;;;;;;;8.77;6.50;;;7.70;99.90;;;;;;5031081;28;20538;-75
2023/11/17 02:57:12;;;;;;;11.10;7.95;;;7.60;99.90;;;;;;5045903;28;20199;-75
2023/11/17 02:59:39;;;;;;;12.60;7.55;;;7.60;99.90;;;;;;5039438;28;20169;-75
2023/11/17 03:02:05;;;;;;;12.45;7.95;;;7.60;99.90;;;;;;5041323;28;20250;-75
2023/11/17 03:04:32;;;;;;;9.23;7.68;;;7.50;99.90;;;;;;5024861;28;20204;-75
2023/11/17 03:07:01;;;;;;;12.98;7.68;;;7.50;99.90;;;;;;5032770;28;20197;-75
2023/11/17 03:09:29;;;;;;;8.65;6.13;;;7.40;99.90;;;;;;5028403;28;20176;-75
2023/11/17 03:11:59;;;;;;;9.93;7.30;;;7.40;99.90;;;;;;5070211;28;20180;-75
2023/11/17 03:14:25;;;;;;;9.57;7.22;;;7.40;99.90;;;;;;5021890;28;20168;-75
2023/11/17 03:16:55;;;;;;;13.90;7.38;;;7.40;99.90;;;;;;5052683;28;20200;-76
2023/11/17 03:19:23;;;;;;;9.07;7.68;;;7.30;99.90;;;;;;5040911;28;20539;-74
2023/11/17 03:21:50;;;;;;;11.63;7.53;;;7.30;99.90;;;;;;5016474;28;20173;-74
2023/11/17 03:24:18;;;;;;;7.95;5.88;;;7.30;99.90;;;;;;5041001;28;20212;-75
2023/11/17 03:26:50;;;;;;;9.15;7.25;;;7.20;99.90;;;;;;5052685;28;20189;-74
2023/11/17 03:29:15;;;;;;;8.60;7.30;;;7.20;99.90;;;;;;5070794;28;20180;-76
2023/11/17 03:31:49;;;;;;;9.43;7.00;;;7.20;99.90;;;;;;5019600;28;20168;-76
2023/11/17 03:34:23;;;;;;;9.50;8.50;;;7.20;99.90;;;;;;5027396;28;20591;-75
2023/11/17 03:37:00;;;;;;;11.23;8.05;;;7.10;99.90;;;;;;5033466;28;20201;-75
2023/11/17 03:39:30;;;;;;;8.75;7.68;;;7.10;99.90;;;;;;5020609;28;20188;-74
2023/11/17 03:41:59;;;;;;;8.75;7.55;;;7.10;99.90;;;;;;5044252;28;20173;-75
2023/11/17 03:44:27;;;;;;;9.38;7.22;;;7.10;99.90;;;;;;5023253;28;20215;-74
2023/11/17 03:46:58;;;;;;;11.48;8.90;;;7.00;99.90;;;;;;5037233;28;20280;-75
2023/11/17 03:49:25;;;;;;;10.95;8.40;;;7.00;99.90;;;;;;5032930;28;20195;-74
2023/11/17 03:51:55;;;;;;;10.25;7.07;;;7.00;99.90;;;;;;5039631;28;20184;-74
2023/11/17 03:54:23;;;;;;;10.73;7.78;;;7.00;99.90;;;;;;5016308;28;20276;-75
2023/11/17 03:56:50;;;;;;;10.98;9.23;;;7.00;99.90;;;;;;5032535;28;20223;-74
2023/11/17 03:59:16;;;;;;;11.45;8.32;;;7.00;99.90;;;;;;5048169;28;20689;-74
2023/11/17 04:01:45;;;;;;;8.68;7.72;;;6.90;99.90;;;;;;5032361;28;20711;-75
2023/11/17 04:04:11;;;;;;;9.98;7.88;;;6.90;99.90;;;;;;5032848;28;20607;-75
2023/11/17 04:06:37;;;;;;;9.70;6.80;;;6.90;99.90;;;;;;5016226;28;20192;-75
2023/11/17 04:09:07;;;;;;;9.50;7.60;;;6.90;99.90;;;;;;5052102;28;20785;-75
2023/11/17 04:11:34;;;;;;;10.57;8.07;;;6.90;99.90;;;;;;5023278;28;20172;-75
2023/11/17 04:14:00;;;;;;;9.52;7.85;;;6.90;99.90;;;;;;5036728;28;20208;-75
2023/11/17 04:16:26;;;;;;;10.10;8.32;;;6.80;99.90;;;;;;5011259;28;20219;-75
2023/11/17 04:18:54;;;;;;;9.80;7.72;;;6.80;99.90;;;;;;5045891;28;20177;-75
2023/11/17 04:21:22;;;;;;;10.80;8.15;;;6.80;99.90;;;;;;5051734;28;20176;-75
2023/11/17 04:23:49;;;;;;;11.43;8.25;;;6.80;99.90;;;;;;5019325;28;20666;-75
2023/11/17 04:26:14;;;;;;;11.57;8.77;;;6.80;99.90;;;;;;5068301;28;20199;-75
2023/11/17 04:28:44;;;;;;;10.35;9.23;;;6.90;99.90;;;;;;5034699;28;20240;-75
2023/11/17 04:31:10;;;;;;;13.18;7.97;;;6.90;99.90;;;;;;5017918;28;20169;-75
2023/11/17 04:33:36;;;;;;;11.75;9.27;;;7.00;99.90;;;;;;5019866;28;20600;-75
2023/11/17 04:36:02;;;;;;;15.57;10.80;;;7.00;99.90;;;;;;5019513;28;20208;-75
2023/11/17 04:38:31;;;;;;;11.20;8.20;;;7.00;99.90;;;;;;5036055;28;20594;-75
2023/11/17 04:40:58;;;;;;;14.68;10.95;;;7.10;99.90;;;;;;5019397;28;20231;-75
2023/11/17 04:43:25;;;;;;;12.40;9.13;;;7.10;99.90;;;;;;5050508;23;20773;-75
2023/11/17 04:45:51;;;;;;;13.60;9.27;;;7.10;99.90;;;;;;5032716;28;20212;-75
2023/11/17 04:48:19;;;;;;;10.93;8.98;;;7.20;99.90;;;;;;5035378;28;20995;-75
2023/11/17 04:50:46;;;;;;;13.32;10.93;;;7.20;99.90;;;;;;5035925;28;20227;-75
2023/11/17 04:53:11;;;;;;;14.50;10.18;;;7.20;99.90;;;;;;5027610;28;20335;-75
2023/11/17 04:55:37;;;;;;;13.07;10.23;;;7.30;99.90;;;;;;5016615;28;20256;-75
2023/11/17 04:58:03;;;;;;;13.48;11.07;;;7.30;99.90;;;;;;5006539;28;20185;-76
2023/11/17 05:00:31;;;;;;;15.83;11.90;;;7.30;99.90;;;;;;5033672;28;20595;-75
2023/11/17 05:03:00;;;;;;;13.05;9.15;;;7.30;99.90;;;;;;5033143;28;20351;-75
2023/11/17 05:05:27;;;;;;;15.07;10.80;;;7.30;99.90;;;;;;5015587;28;20177;-75
2023/11/17 05:07:53;;;;;;;16.25;11.40;;;7.30;99.90;;;;;;5033375;28;20166;-75
2023/11/17 05:10:19;;;;;;;18.27;12.43;;;7.30;99.90;;;;;;5015304;28;20173;-75
2023/11/17 05:12:49;;;;;;;15.68;10.68;;;7.30;99.90;;;;;;5033174;28;20200;-76
2023/11/17 05:15:16;;;;;;;16.75;11.90;;;7.30;99.90;;;;;;5016001;28;20166;-75
2023/11/17 05:17:45;;;;;;;18.73;12.50;;;7.40;99.90;;;;;;5036693;28;20193;-75
2023/11/17 05:20:15;;;;;;;14.80;12.27;;;7.40;99.90;;;;;;5033043;28;20177;-76
2023/11/17 05:22:42;;;;;;;16.98;11.32;;;7.40;99.90;;;;;;5014908;28;20226;-76
2023/11/17 05:25:08;;;;;;;16.48;12.63;;;7.40;99.90;;;;;;5032632;28;20533;-76
2023/11/17 05:27:35;;;;;;;17.50;11.68;;;7.40;99.90;;;;;;5015282;28;20193;-76
2023/11/17 05:30:04;;;;;;;15.45;10.95;;;7.40;99.90;;;;;;5015372;28;20173;-76
2023/11/17 05:32:30;;;;;;;14.13;11.32;;;7.50;99.90;;;;;;4998503;28;20196;-76
2023/11/17 05:34:56;;;;;;;16.38;10.05;;;7.50;99.90;;;;;;4999005;28;20185;-76
2023/11/17 05:37:23;;;;;;;14.38;11.05;;;7.50;99.90;;;;;;5014843;28;20182;-76
2023/11/17 05:39:49;;;;;;;16.05;11.52;;;7.50;99.90;;;;;;5003809;28;20174;-74
2023/11/17 05:42:15;;;;;;;14.85;11.32;;;7.50;99.90;;;;;;5031676;28;20185;-75
2023/11/17 05:44:42;;;;;;;20.37;12.40;;;7.50;99.90;;;;;;5032570;28;20205;-75
2023/11/17 05:47:08;;;;;;;19.67;11.75;;;7.50;99.90;;;;;;5014675;28;20646;-74
2023/11/17 05:49:41;;;;;;;20.55;14.27;;;7.50;99.90;;;;;;5015163;28;20209;-75
2023/11/17 05:52:11;;;;;;;14.68;12.05;;;7.50;99.90;;;;;;5014793;28;20627;-75
2023/11/17 05:54:45;;;;;;;14.93;12.10;;;7.50;99.90;;;;;;5018048;28;20613;-74
2023/11/17 05:57:16;;;;;;;16.60;12.98;;;7.40;99.90;;;;;;5032656;28;20182;-75
2023/11/17 05:59:43;;;;;;;17.48;12.50;;;7.40;99.90;;;;;;4998499;28;20186;-76
2023/11/17 06:02:09;;;;;;;16.80;12.02;;;7.40;99.90;;;;;;5014094;28;20216;-76
2023/11/17 06:04:35;;;;;;;15.90;12.00;;;7.50;99.90;;;;;;4998014;28;20229;-75
2023/11/17 06:07:02;;;;;;;17.17;12.52;;;7.50;99.90;;;;;;5013824;28;20616;-75
2023/11/17 06:09:28;;;;;;;15.40;11.93;;;7.50;99.90;;;;;;5013793;28;20279;-75
2023/11/17 06:11:57;;;;;;;16.33;12.60;;;7.60;99.90;;;;;;5014133;28;20231;-75
2023/11/17 06:14:23;;;;;;;16.40;12.18;;;7.60;99.90;;;;;;5013754;28;20247;-75
2023/11/17 06:16:53;;;;;;;17.50;12.18;;;7.60;99.90;;;;;;5013951;28;20220;-75
2023/11/17 06:19:19;;;;;;;18.20;11.88;;;7.60;99.90;;;;;;5014072;28;20265;-75
2023/11/17 06:21:44;;;;;;;20.42;12.30;;;7.60;99.90;;;;;;5031777;28;20239;-75
2023/11/17 06:24:10;;;;;;;19.40;13.80;;;7.60;99.90;;;;;;5031866;28;20565;-75
2023/11/17 06:26:36;;;;;;;17.87;10.80;;;7.60;99.90;;;;;;5004393;28;20181;-75
2023/11/17 06:29:02;;;;;;;19.33;11.97;;;7.70;99.90;;;;;;5014256;28;20690;-75
2023/11/17 06:31:28;;;;;;;19.70;13.40;;;7.70;99.90;;;;;;5015521;28;20533;-75
2023/11/17 06:33:54;;;;;;;24.60;15.80;;;7.70;99.90;;;;;;4997873;28;20214;-75
2023/11/17 06:36:21;;;;;;;18.00;13.30;;;7.70;99.90;;;;;;5014677;28;20190;-75
2023/11/17 06:38:47;;;;;;;19.65;12.07;;;7.70;99.90;;;;;;5014667;28;21163;-76
2023/11/17 06:41:14;;;;;;;14.33;12.27;;;7.70;99.90;;;;;;5031528;28;20181;-76
2023/11/17 06:43:40;;;;;;;16.80;12.50;;;7.70;99.90;;;;;;5036875;28;20240;-76
2023/11/17 06:46:07;;;;;;;18.67;13.25;;;7.70;99.90;;;;;;5033436;28;20181;-75
2023/11/17 06:48:39;;;;;;;16.15;12.52;;;7.70;99.90;;;;;;5013789;28;20174;-75
2023/11/17 06:51:05;;;;;;;17.67;14.38;;;7.70;99.90;;;;;;5031615;28;20180;-75
2023/11/17 06:53:32;;;;;;;19.13;12.43;;;7.70;99.90;;;;;;5030533;28;20236;-75
2023/11/17 06:56:00;;;;;;;18.38;12.88;;;7.70;99.90;;;;;;5030950;28;20210;-75
2023/11/17 06:58:26;;;;;;;21.02;16.52;;;7.70;99.90;;;;;;5013651;28;20181;-75
2023/11/17 07:00:52;;;;;;;17.75;13.57;;;7.60;99.90;;;;;;5031298;28;20636;-77
2023/11/17 07:03:21;;;;;;;19.03;14.80;;;7.60;99.90;;;;;;4996855;28;20267;-78
2023/11/17 07:05:49;;;;;;;21.50;13.25;;;7.60;99.90;;;;;;4995371;28;20592;-78
2023/11/17 07:08:17;;;;;;;28.70;15.23;;;7.60;99.90;;;;;;5029067;28;20193;-78
2023/11/17 07:10:44;;;;;;;19.42;13.73;;;7.60;99.90;;;;;;5032664;28;20532;-75
2023/11/17 07:13:10;;;;;;;17.73;13.85;;;7.60;99.90;;;;;;5008439;28;20198;-75
2023/11/17 07:15:39;;;;;;;15.18;11.98;;;7.60;99.90;;;;;;5029780;28;20201;-75
2023/11/17 07:18:06;;;;;;;23.30;14.48;;;7.70;99.90;;;;;;5030702;28;20224;-74
2023/11/17 07:20:33;;;;;;;18.67;13.85;;;7.70;99.90;;;;;;5012737;28;20193;-75
2023/11/17 07:22:59;;;;;;;19.17;13.70;;;7.70;99.90;;;;;;5010055;28;20213;-75
2023/11/17 07:25:25;;;;;;;19.93;14.53;;;7.80;99.90;;;;;;5026626;28;20533;-75
2023/11/17 07:27:51;;;;;;;20.42;14.15;;;7.80;99.90;;;;;;5030446;28;20591;-74
2023/11/17 07:30:19;;;;;;;23.67;16.30;;;7.80;99.90;;;;;;5012014;28;20177;-74
2023/11/17 07:32:45;;;;;;;21.23;16.08;;;7.80;99.90;;;;;;5017823;28;20246;-74
2023/11/17 07:35:11;;;;;;;25.38;16.75;;;7.80;99.90;;;;;;5011097;28;20170;-74
2023/11/17 07:37:39;;;;;;;19.83;14.27;;;7.90;99.90;;;;;;4996088;28;20180;-74
2023/11/17 07:40:06;;;;;;;23.52;16.13;;;7.90;99.90;;;;;;5013101;28;20173;-74
2023/11/17 07:42:32;;;;;;;28.73;19.13;;;7.90;99.90;;;;;;5011758;28;20166;-74
2023/11/17 07:44:58;;;;;;;29.67;18.27;;;7.90;99.90;;;;;;5014332;28;20197;-74
2023/11/17 07:47:24;;;;;;;27.90;17.87;;;8.00;99.90;;;;;;5029164;28;20239;-74
2023/11/17 07:49:54;;;;;;;26.47;17.10;;;8.00;99.90;;;;;;5012737;28;20671;-74
2023/11/17 07:52:23;;;;;;;29.55;16.88;;;8.00;99.90;;;;;;5012438;28;20674;-74
2023/11/17 07:54:49;;;;;;;29.60;19.00;;;8.10;99.90;;;;;;4996253;28;20639;-74
2023/11/17 07:57:15;;;;;;;31.83;19.33;;;8.20;99.90;;;;;;5030211;28;20201;-74
2023/11/17 07:59:41;;;;;;;31.95;20.10;;;8.20;99.90;;;;;;5030486;28;20586;-74
2023/11/17 08:02:09;;;;;;;28.20;19.70;;;8.20;99.90;;;;;;4996003;28;20227;-75
2023/11/17 08:04:37;;;;;;;29.13;20.05;;;8.30;99.90;;;;;;5013529;28;20220;-75
2023/11/17 08:07:05;;;;;;;29.75;21.15;;;8.30;99.90;;;;;;5016396;28;20189;-74
2023/11/17 08:09:33;;;;;;;30.02;19.70;;;8.30;99.90;;;;;;5034254;28;20173;-75
2023/11/17 08:12:00;;;;;;;32.22;22.30;;;8.40;99.90;;;;;;5016433;28;20174;-75
2023/11/17 08:14:26;;;;;;;32.58;19.85;;;8.30;99.90;;;;;;5016374;28;20232;-75
2023/11/17 08:16:52;;;;;;;35.45;21.33;;;8.30;99.90;;;;;;5016419;28;20235;-75
2023/11/17 08:19:18;;;;;;;33.83;22.10;;;8.40;99.90;;;;;;5016213;28;20272;-75
2023/11/17 08:21:43;;;;;;;33.70;20.13;;;8.40;99.90;;;;;;4999573;28;20677;-75
2023/11/17 08:24:09;;;;;;;28.93;20.27;;;8.50;99.90;;;;;;5036584;28;20212;-75
2023/11/17 08:26:36;;;;;;;38.13;23.00;;;8.50;99.90;;;;;;5016185;28;20349;-75
2023/11/17 08:29:03;;;;;;;33.45;22.58;;;8.60;99.90;;;;;;5033848;28;20231;-75
2023/11/17 08:31:29;;;;;;;34.75;22.27;;;8.60;99.90;;;;;;5038110;28;20239;-75
2023/11/17 08:33:55;;;;;;;30.70;22.23;;;8.60;99.90;;;;;;4999333;28;20197;-75
2023/11/17 08:36:24;;;;;;;35.40;23.00;;;8.70;99.90;;;;;;5015819;28;20177;-75
2023/11/17 08:38:52;;;;;;;36.00;22.63;;;8.70;99.90;;;;;;5033842;28;20208;-75
2023/11/17 08:41:18;;;;;;;31.95;23.10;;;8.70;99.90;;;;;;5015897;28;20207;-76
2023/11/17 08:43:43;;;;;;;35.50;24.55;;;8.70;99.90;;;;;;5033254;28;20216;-76
2023/11/17 08:46:09;;;;;;;29.17;21.50;;;8.70;99.90;;;;;;5033560;28;20170;-75
2023/11/17 08:48:36;;;;;;;30.42;21.88;;;8.70;99.90;;;;;;5033514;28;20178;-75
2023/11/17 08:51:06;;;;;;;32.53;21.80;;;8.80;99.90;;;;;;5015885;28;20260;-75
2023/11/17 08:53:32;;;;;;;31.42;20.98;;;8.80;99.90;;;;;;4998460;28;20233;-76
2023/11/17 08:56:00;;;;;;;27.93;20.43;;;8.90;99.90;;;;;;5015522;28;20622;-76
2023/11/17 08:58:26;;;;;;;30.73;21.48;;;9.00;99.90;;;;;;5031045;28;20193;-76
2023/11/17 09:00:52;;;;;;;33.67;21.07;;;9.10;99.90;;;;;;5019286;28;20169;-76
2023/11/17 09:03:18;;;;;;;35.20;23.57;;;9.10;99.90;;;;;;5014780;28;20251;-76
2023/11/17 09:05:45;;;;;;;32.20;21.05;;;9.20;99.90;;;;;;5028288;28;20177;-75
2023/11/17 09:08:11;;;;;;;28.20;20.45;;;9.30;99.90;;;;;;5033234;28;20255;-76
2023/11/17 09:10:37;;;;;;;26.83;18.77;;;9.30;99.90;;;;;;5015476;28;20209;-76
2023/11/17 09:13:06;;;;;;;33.03;20.75;;;9.40;99.90;;;;;;5032924;28;20276;-75
2023/11/17 09:15:35;;;;;;;30.77;22.70;;;9.40;99.90;;;;;;5032853;28;20197;-75
2023/11/17 09:18:01;;;;;;;31.63;21.95;;;9.40;99.90;;;;;;4998643;28;20217;-75
2023/11/17 09:20:28;;;;;;;29.47;18.93;;;9.40;99.90;;;;;;5032800;28;20225;-75
2023/11/17 09:22:54;;;;;;;30.05;19.40;;;9.40;99.90;;;;;;5015049;28;20197;-75
2023/11/17 09:25:23;;;;;;;33.28;22.70;;;9.50;99.90;;;;;;5032545;28;20188;-75
2023/11/17 09:27:59;;;;;;;32.58;23.02;;;9.50;99.90;;;;;;5033095;28;20172;-75
2023/11/17 09:30:25;;;;;;;31.33;22.33;;;9.50;99.90;;;;;;5028528;28;20261;-75
2023/11/17 09:32:56;;;;;;;33.00;23.30;;;9.50;99.90;;;;;;5014874;28;20272;-75
2023/11/17 09:35:26;;;;;;;31.65;21.00;;;9.50;99.90;;;;;;5007083;28;20178;-76
2023/11/17 09:37:59;;;;;;;28.55;20.60;;;9.50;99.90;;;;;;5018959;28;20182;-76
2023/11/17 09:40:26;;;;;;;29.65;22.05;;;9.40;99.90;;;;;;5032769;28;20224;-75
2023/11/17 09:42:54;;;;;;;27.23;21.02;;;9.40;99.90;;;;;;5032036;28;20626;-75
2023/11/17 09:45:32;;;;;;;31.25;20.38;;;9.30;99.90;;;;;;5030286;28;20649;-75
2023/11/17 09:48:01;;;;;;;32.53;21.27;;;9.30;99.90;;;;;;5025897;28;20762;-76
2023/11/17 09:50:29;;;;;;;26.42;19.40;;;9.30;99.90;;;;;;4998535;28;20174;-75
2023/11/17 09:52:56;;;;;;;35.00;23.40;;;9.30;99.90;;;;;;4998129;28;20186;-76
2023/11/17 09:55:23;;;;;;;28.92;20.23;;;9.20;99.90;;;;;;5014621;28;20170;-76
2023/11/17 09:57:53;;;;;;;31.30;20.50;;;9.20;99.90;;;;;;5023522;28;20185;-76
2023/11/17 10:00:20;;;;;;;31.20;21.55;;;9.20;99.90;;;;;;5014701;28;20185;-76
2023/11/17 10:03:15;;;;;;;27.40;19.48;;;9.20;99.90;;;;;;5031851;28;20193;-76
2023/11/17 10:05:42;;;;;;;34.60;21.98;;;9.20;99.90;;;;;;5012839;28;20317;-76
2023/11/17 10:08:16;;;;;;;31.42;22.42;;;9.20;99.90;;;;;;5031873;28;20169;-76
2023/11/17 10:10:46;;;;;;;34.00;21.25;;;9.20;99.90;;;;;;5031971;28;20260;-76
2023/11/17 10:13:13;;;;;;;38.00;23.00;;;9.20;99.90;;;;;;5017751;28;20201;-75
2023/11/17 10:15:46;;;;;;;30.17;20.35;;;9.30;99.90;;;;;;5014350;28;20178;-76
2023/11/17 10:18:25;;;;;;;23.70;17.83;;;9.30;99.90;;;;;;5013865;28;20201;-76
2023/11/17 10:20:53;;;;;;;29.50;19.98;;;9.30;99.90;;;;;;5013048;28;20260;-76
2023/11/17 10:23:19;;;;;;;24.92;16.30;;;9.40;99.90;;;;;;5013141;28;20320;-76
2023/11/17 10:25:52;;;;;;;31.75;22.30;;;9.40;99.90;;;;;;5033449;28;20204;-76
2023/11/17 10:28:19;;;;;;;28.55;21.02;;;9.40;99.90;;;;;;5035675;28;20177;-76
2023/11/17 10:30:46;;;;;;;31.80;20.85;;;9.40;99.90;;;;;;5031389;28;20211;-76
2023/11/17 10:33:24;;;;;;;31.92;23.05;;;9.40;99.90;;;;;;5031506;28;20197;-76
2023/11/17 10:36:12;;;;;;;29.30;21.90;;;9.40;99.90;;;;;;5013856;28;20627;-77
2023/11/17 10:38:45;;;;;;;27.90;19.40;;;9.40;99.90;;;;;;5013714;28;20186;-77
2023/11/17 10:41:20;;;;;;;33.45;20.05;;;9.40;99.90;;;;;;5013922;28;20182;-77
2023/11/17 10:43:49;;;;;;;29.88;21.40;;;9.40;99.90;;;;;;5036905;28;20283;-77
2023/11/17 10:46:19;;;;;;;30.70;20.48;;;9.50;99.90;;;;;;5010883;28;20749;-77
2023/11/17 10:48:46;;;;;;;32.20;21.33;;;9.50;99.90;;;;;;5029320;28;20186;-78
2023/11/17 10:51:16;;;;;;;34.70;22.05;;;9.50;99.90;;;;;;5015871;28;20172;-77
2023/11/17 10:53:42;;;;;;;32.05;20.63;;;9.60;99.90;;;;;;5011482;28;20624;-77
2023/11/17 10:56:24;;;;;;;27.70;21.17;;;9.70;99.90;;;;;;5032885;28;20238;-77
2023/11/17 10:58:55;;;;;;;27.70;20.13;;;9.70;99.90;;;;;;5012143;28;20212;-78
2023/11/17 11:01:29;;;;;;;34.00;21.67;;;9.70;99.90;;;;;;5010910;28;20198;-77
2023/11/17 11:03:55;;;;;;;28.88;20.45;;;9.80;99.90;;;;;;5011565;28;20207;-76
2023/11/17 11:06:21;;;;;;;35.27;24.20;;;9.80;99.90;;;;;;5030977;28;20640;-76
2023/11/17 11:08:59;;;;;;;32.70;23.97;;;9.80;99.90;;;;;;5030538;28;20170;-76
2023/11/17 11:11:26;;;;;;;28.88;20.88;;;9.80;99.90;;;;;;5013216;28;20185;-77
2023/11/17 11:13:56;;;;;;;31.20;23.00;;;9.80;99.90;;;;;;5030528;28;20209;-77
2023/11/17 11:16:24;;;;;;;26.77;21.10;;;9.80;99.90;;;;;;5026511;28;20185;-75
2023/11/17 11:18:53;;;;;;;32.03;21.33;;;9.90;99.90;;;;;;5030220;28;20256;-75
2023/11/17 11:21:21;;;;;;;34.28;22.15;;;9.90;99.90;;;;;;5013265;28;20707;-75
2023/11/17 11:23:50;;;;;;;33.00;24.63;;;9.90;99.90;;;;;;5006753;28;20966;-75
2023/11/17 11:26:17;;;;;;;32.78;22.75;;;9.90;99.90;;;;;;5013752;28;20546;-77
2023/11/17 11:28:45;;;;;;;33.05;20.25;;;9.90;99.90;;;;;;5017642;28;20611;-77
2023/11/17 11:31:12;;;;;;;30.63;21.98;;;10.00;99.90;;;;;;5005822;28;20265;-75
2023/11/17 11:33:38;;;;;;;31.77;22.65;;;10.10;99.90;;;;;;5016497;28;20666;-76
2023/11/17 11:36:05;;;;;;;41.35;24.27;;;10.10;99.90;;;;;;5038966;28;20609;-75
2023/11/17 11:38:32;;;;;;;28.48;22.20;;;10.20;99.90;;;;;;5023341;28;20226;-76
2023/11/17 11:40:58;;;;;;;28.73;21.08;;;10.20;99.90;;;;;;5015888;28;20173;-76
2023/11/17 11:43:27;;;;;;;29.20;20.90;;;10.30;99.90;;;;;;5034409;28;20325;-76
2023/11/17 11:45:55;;;;;;;34.33;22.75;;;10.30;99.90;;;;;;5036532;28;20514;-76
2023/11/17 11:48:24;;;;;;;31.67;22.10;;;10.30;99.90;;;;;;5031432;28;20182;-75
2023/11/17 11:50:54;;;;;;;29.45;20.58;;;10.30;99.90;;;;;;5038636;28;20181;-74
2023/11/17 11:53:24;;;;;;;27.83;20.05;;;10.40;99.90;;;;;;5029302;28;20209;-74
2023/11/17 11:55:53;;;;;;;31.27;20.67;;;10.40;99.90;;;;;;5028404;28;20561;-75
2023/11/17 11:58:19;;;;;;;35.22;22.15;;;10.50;99.90;;;;;;4995119;28;20186;-74
2023/11/17 12:00:54;;;;;;;29.67;21.97;;;10.40;99.90;;;;;;5029288;28;20177;-75
2023/11/17 12:03:21;;;;;;;26.75;18.50;;;10.50;99.90;;;;;;5019837;28;20647;-75
2023/11/17 12:05:48;;;;;;;27.13;19.67;;;10.50;99.90;;;;;;5039452;28;20205;-75
2023/11/17 12:08:31;;;;;;;29.92;21.40;;;10.50;99.90;;;;;;5031499;28;20168;-75
2023/11/17 12:11:18;;;;;;;27.13;19.40;;;10.50;99.90;;;;;;5022074;28;20227;-74
2023/11/17 12:13:53;;;;;;;28.75;19.80;;;10.50;99.90;;;;;;5012424;28;20208;-75
2023/11/17 12:16:20;;;;;;;26.15;19.88;;;10.60;99.90;;;;;;5031756;28;20730;-76
2023/11/17 12:18:50;;;;;;;31.45;21.38;;;10.60;99.90;;;;;;5015317;28;20189;-75
2023/11/17 12:21:21;;;;;;;30.27;20.10;;;10.60;99.90;;;;;;5044447;28;20585;-76
2023/11/17 12:23:58;;;;;;;28.77;19.60;;;10.50;99.90;;;;;;5006662;28;20213;-75
2023/11/17 12:26:25;;;;;;;27.23;19.05;;;10.60;99.90;;;;;;5031388;28;20172;-75
2023/11/17 12:28:52;;;;;;;25.33;17.73;;;10.60;99.90;;;;;;5030581;28;20182;-75
2023/11/17 12:31:18;;;;;;;30.58;19.38;;;10.60;99.90;;;;;;5013231;28;20178;-75
2023/11/17 12:33:48;;;;;;;29.35;19.23;;;10.50;99.90;;;;;;5002642;28;20197;-75
2023/11/17 12:36:16;;;;;;;26.50;17.65;;;10.60;99.90;;;;;;5012717;28;20240;-75
2023/11/17 12:38:43;;;;;;;27.63;19.52;;;10.50;99.90;;;;;;4996810;28;20260;-76
2023/11/17 12:41:13;;;;;;;24.17;17.65;;;10.50;99.90;;;;;;5033949;28;20173;-75
2023/11/17 12:43:45;;;;;;;23.85;16.55;;;10.50;99.90;;;;;;5013732;28;20286;-76
2023/11/17 12:46:10;;;;;;;33.75;18.25;;;10.50;99.90;;;;;;5036221;28;20181;-75